KRID/RID METAR and TAF weather

Enter ICAO airport designator
Station Type Date Time Source
KRID METAR 2022/06/27 08:35 UTC NOAA

KRID 270835Z AUTO 34005KT 10SM CLR 15/13 A3013 RMK AO2


Station Type Date Time Source
KRID Decoded METAR 2022/06/27 08:35 UTC NOAA

Station name not available
Jun 27, 2022 - 04:35 AM EDT / 2022.06.27 0835 UTC
Wind: from the NNW (340 degrees) at 6 MPH (5 KT):0
Visibility: 10 mile(s):0
Sky conditions: clear
Temperature: 59 F (15 C)
Dew Point: 55 F (13 C)
Relative Humidity: 87%
Pressure (altimeter): 30.13 in. Hg (1020 hPa)
ob: KRID 270835Z AUTO 34005KT 10SM CLR 15/13 A3013 RMK AO2
cycle: 8

Station Type Date Time Source
KRID TAF UTC NOAA

Error!

Example: see airport list